createdAt,value
2023-03-31T00:01:28.709Z,100086.53
2023-03-31T00:06:37.869Z,100071.06
2023-03-31T00:11:39.757Z,100068.50
2023-03-31T00:16:41.191Z,100063.94
2023-03-31T00:21:42.747Z,100047.31
2023-03-31T00:26:44.424Z,100038.50
2023-03-31T00:31:45.945Z,100032.38
2023-03-31T00:36:47.741Z,100029.81
2023-03-31T00:41:49.604Z,100009.38
2023-03-31T00:46:51.209Z,100004.16
2023-03-31T00:51:53.979Z,99990.53
2023-03-31T00:56:58.262Z,99988.78
2023-03-31T01:02:02.779Z,99972.78
2023-03-31T01:07:12.431Z,99966.16
2023-03-31T01:12:15.759Z,99957.31
2023-03-31T01:17:19.956Z,99959.38
2023-03-31T01:22:33.607Z,99941.28
2023-03-31T01:27:54.142Z,99935.59
2023-03-31T01:32:55.580Z,99917.13
2023-03-31T01:38:16.440Z,99918.28
2023-03-31T01:43:25.008Z,99900.00
2023-03-31T01:48:26.332Z,99893.38
2023-03-31T01:53:27.631Z,99890.31
2023-03-31T01:58:38.681Z,99887.91
2023-03-31T02:03:45.904Z,99872.31
2023-03-31T02:08:53.865Z,99859.28
2023-03-31T02:13:56.504Z,99854.44
2023-03-31T02:19:05.969Z,99856.63
2023-03-31T02:24:10.584Z,99818.38
2023-03-31T02:29:11.906Z,99799.66
2023-03-31T02:34:13.316Z,99766.97
2023-03-31T02:39:17.466Z,99739.06
2023-03-31T02:44:19.550Z,99760.00
2023-03-31T02:49:21.486Z,99750.53
2023-03-31T02:54:28.946Z,99719.03
2023-03-31T02:59:30.689Z,99705.34
2023-03-31T03:04:50.980Z,99698.88
2023-03-31T03:10:02.820Z,99690.31
2023-03-31T03:15:04.156Z,99660.69
2023-03-31T03:20:09.494Z,99665.78
2023-03-31T03:25:13.187Z,99678.97
2023-03-31T03:30:14.610Z,99646.41
2023-03-31T03:35:16.119Z,99629.97
2023-03-31T03:40:17.520Z,99632.03
2023-03-31T03:45:18.815Z,99630.81
2023-03-31T03:50:20.173Z,99620.72
2023-03-31T03:55:21.542Z,99616.28
2023-03-31T04:00:23.012Z,99618.56
2023-03-31T04:05:24.434Z,99607.31
2023-03-31T04:10:25.843Z,99607.91
2023-03-31T04:15:27.169Z,99597.22
2023-03-31T04:20:30.589Z,99588.47
2023-03-31T04:25:32.003Z,99578.97
2023-03-31T04:30:33.389Z,99565.06
2023-03-31T04:35:50.024Z,99544.63
2023-03-31T04:40:52.225Z,99539.56
2023-03-31T04:45:53.543Z,99528.47
2023-03-31T04:50:54.877Z,99513.13
2023-03-31T04:55:56.194Z,99505.72
2023-03-31T05:00:57.619Z,99493.69
2023-03-31T05:05:58.969Z,99492.88
2023-03-31T05:11:00.474Z,99480.00
2023-03-31T05:16:08.704Z,99468.88
2023-03-31T05:21:11.023Z,99449.38
2023-03-31T05:26:13.610Z,99449.56
2023-03-31T05:31:15.024Z,99443.13
2023-03-31T05:36:17.321Z,99421.09
2023-03-31T05:41:18.662Z,99426.94
2023-03-31T05:46:22.720Z,99431.00
2023-03-31T05:51:24.314Z,99395.22
2023-03-31T05:56:27.577Z,99364.09
2023-03-31T06:01:29.999Z,99369.38
2023-03-31T06:06:33.973Z,99358.19
2023-03-31T06:11:36.227Z,99357.41
2023-03-31T06:16:37.565Z,99357.72
2023-03-31T06:21:38.916Z,99352.50
2023-03-31T06:26:40.493Z,99348.88
2023-03-31T06:31:41.846Z,99348.00
2023-03-31T06:36:43.182Z,99340.75
2023-03-31T06:41:44.491Z,99325.91
2023-03-31T06:46:46.045Z,99322.91
2023-03-31T06:51:47.548Z,99300.47
2023-03-31T06:56:48.933Z,99298.47
2023-03-31T07:01:50.574Z,99300.22
2023-03-31T07:06:51.969Z,99293.31
2023-03-31T07:11:56.546Z,99304.34
2023-03-31T07:16:58.484Z,99292.75
2023-03-31T07:21:59.882Z,99290.50
2023-03-31T07:27:01.205Z,99293.81
2023-03-31T07:32:02.587Z,99274.16
2023-03-31T07:37:03.950Z,99286.81
2023-03-31T07:42:05.397Z,99277.81
2023-03-31T07:47:06.834Z,99277.63
2023-03-31T07:52:08.175Z,99274.25
2023-03-31T07:57:10.120Z,99266.16
2023-03-31T08:02:16.519Z,99270.88
2023-03-31T08:07:17.905Z,99256.59
2023-03-31T08:12:19.212Z,99266.13
2023-03-31T08:17:20.588Z,99250.41
2023-03-31T08:22:23.287Z,99245.50
2023-03-31T08:27:26.079Z,99255.34
2023-03-31T08:32:27.534Z,99252.41
2023-03-31T08:37:28.974Z,99244.31
2023-03-31T08:42:33.012Z,99240.13
2023-03-31T08:47:36.942Z,99231.25
2023-03-31T08:52:42.779Z,99234.84
2023-03-31T08:57:50.301Z,99222.44
2023-03-31T09:03:03.800Z,99214.28
2023-03-31T09:08:12.527Z,99214.63
2023-03-31T09:13:23.189Z,99212.84
2023-03-31T09:18:32.077Z,99192.97
2023-03-31T09:23:39.631Z,99188.44
2023-03-31T09:28:40.949Z,99179.59
2023-03-31T09:33:44.570Z,99181.44
2023-03-31T09:38:46.484Z,99185.41
2023-03-31T09:43:49.482Z,99199.91
2023-03-31T09:49:06.775Z,99212.28
2023-03-31T09:54:30.992Z,99213.63
2023-03-31T09:59:34.118Z,99201.53
2023-03-31T10:04:35.710Z,99182.72
2023-03-31T10:09:38.336Z,99160.78
2023-03-31T10:14:50.064Z,99158.66
2023-03-31T10:19:57.019Z,99162.81
2023-03-31T10:25:09.031Z,99156.97
2023-03-31T10:30:11.848Z,99156.84
2023-03-31T10:35:27.489Z,99148.75
2023-03-31T10:40:30.664Z,99127.69
2023-03-31T10:45:41.926Z,99130.34
2023-03-31T10:50:43.542Z,99131.50
2023-03-31T10:55:47.910Z,99126.78
2023-03-31T11:01:22.156Z,99121.91
2023-03-31T11:06:55.971Z,99117.03
2023-03-31T11:12:15.945Z,99102.97
2023-03-31T11:17:20.945Z,99109.53
2023-03-31T11:22:37.592Z,99097.94
2023-03-31T11:28:00.436Z,99090.06
2023-03-31T11:33:01.823Z,99075.91
2023-03-31T11:38:17.256Z,99072.53
2023-03-31T11:43:42.681Z,99083.88
2023-03-31T11:48:44.839Z,99087.28
2023-03-31T11:53:46.971Z,99084.13
2023-03-31T11:58:56.838Z,99070.91
2023-03-31T12:04:04.013Z,99071.75
2023-03-31T12:09:15.911Z,99055.41
2023-03-31T12:14:17.259Z,99050.47
2023-03-31T12:19:22.674Z,99085.69
2023-03-31T12:24:24.006Z,99068.13
2023-03-31T12:29:30.896Z,99060.06
2023-03-31T12:34:32.965Z,99035.28
2023-03-31T12:39:37.403Z,99012.97
2023-03-31T12:44:49.338Z,99007.72
2023-03-31T12:49:56.571Z,99011.78
2023-03-31T12:55:16.368Z,98987.03
2023-03-31T13:00:21.282Z,98993.78
2023-03-31T13:05:37.973Z,98985.72
2023-03-31T13:10:58.800Z,98983.44
2023-03-31T13:16:01.175Z,98985.19
2023-03-31T13:26:30.972Z,98976.56
2023-03-31T13:31:52.260Z,98982.59
2023-03-31T13:36:56.303Z,98982.31
2023-03-31T13:42:08.012Z,98962.78
2023-03-31T13:47:21.330Z,98965.91
2023-03-31T13:52:48.360Z,98963.81
2023-03-31T13:58:24.868Z,98975.94
2023-03-31T14:03:38.548Z,98996.78
2023-03-31T14:08:47.033Z,99022.75
2023-03-31T14:14:00.794Z,99012.38
2023-03-31T14:19:07.973Z,99003.56
2023-03-31T14:24:15.112Z,98987.88
2023-03-31T14:29:24.704Z,98963.19
2023-03-31T14:34:26.205Z,98959.63
2023-03-31T14:39:31.036Z,98947.66
2023-03-31T14:44:33.551Z,98947.25
2023-03-31T14:49:36.828Z,98938.38
2023-03-31T14:54:38.675Z,98915.75
2023-03-31T14:59:40.101Z,98915.75
2023-03-31T15:04:46.670Z,98916.81
2023-03-31T15:09:50.535Z,98920.22
2023-03-31T15:14:54.637Z,98920.25
2023-03-31T15:19:57.719Z,98928.16
2023-03-31T15:24:59.118Z,98931.00
2023-03-31T15:30:02.713Z,98933.13
2023-03-31T15:35:18.856Z,98948.13
2023-03-31T15:40:25.135Z,98924.19
2023-03-31T15:45:27.037Z,98940.47
2023-03-31T15:50:28.815Z,98949.41
2023-03-31T15:55:32.080Z,98935.75
2023-03-31T16:00:33.368Z,98944.66
2023-03-31T16:11:12.456Z,98971.66
2023-03-31T16:16:15.836Z,98978.13
2023-03-31T16:21:26.330Z,98976.94
2023-03-31T16:26:28.013Z,98982.41
2023-03-31T16:31:31.035Z,98980.56
2023-03-31T16:36:32.613Z,98987.16
2023-03-31T16:41:35.073Z,98974.31
2023-03-31T16:46:36.430Z,98960.34
2023-03-31T16:51:37.751Z,98955.09
2023-03-31T16:56:39.065Z,98973.19
2023-03-31T17:01:41.041Z,98991.06
2023-03-31T17:06:42.612Z,98987.88
2023-03-31T17:11:44.405Z,98996.31
2023-03-31T17:16:48.497Z,99003.47
2023-03-31T17:21:51.129Z,98995.31
2023-03-31T17:26:52.438Z,98998.38
2023-03-31T17:31:53.952Z,98994.69
2023-03-31T17:36:57.042Z,99001.94
2023-03-31T17:41:58.501Z,98993.50
2023-03-31T17:46:59.805Z,98993.34
2023-03-31T17:52:01.171Z,98997.50
2023-03-31T17:57:03.388Z,98995.50
2023-03-31T18:02:05.144Z,99012.94
2023-03-31T18:07:07.026Z,99016.50
2023-03-31T18:12:08.468Z,99038.22
2023-03-31T18:17:14.648Z,99036.88
2023-03-31T18:22:16.036Z,99030.69
2023-03-31T18:27:18.234Z,99051.03
2023-03-31T18:32:19.825Z,99057.25
2023-03-31T18:37:21.580Z,99048.22
2023-03-31T18:42:25.660Z,99038.06
2023-03-31T18:47:27.238Z,99053.75
2023-03-31T18:52:28.903Z,99050.03
2023-03-31T18:57:30.680Z,99064.81
2023-03-31T19:02:32.192Z,99059.53
2023-03-31T19:07:33.848Z,99062.94
2023-03-31T19:12:35.168Z,99054.78
2023-03-31T19:17:36.656Z,99047.16
2023-03-31T19:22:38.078Z,99053.75
2023-03-31T19:27:40.217Z,99049.78
2023-03-31T19:32:41.572Z,99059.25
2023-03-31T19:37:43.500Z,99058.47
2023-03-31T19:42:44.835Z,99041.16
2023-03-31T19:47:46.324Z,99058.75
2023-03-31T19:52:50.001Z,99052.75
2023-03-31T19:57:51.642Z,99056.75
2023-03-31T20:02:53.244Z,99042.88
2023-03-31T20:07:54.631Z,99053.41
2023-03-31T20:12:56.667Z,99055.50
2023-03-31T20:17:58.071Z,99051.09
2023-03-31T20:22:59.839Z,99042.63
2023-03-31T20:28:01.586Z,99041.56
2023-03-31T20:33:03.048Z,99040.78
2023-03-31T20:38:04.978Z,99045.22
2023-03-31T20:43:06.423Z,99030.66
2023-03-31T20:48:07.848Z,99038.63
2023-03-31T20:53:09.229Z,99040.16
2023-03-31T20:58:10.535Z,99041.94
2023-03-31T21:03:12.035Z,99044.72
2023-03-31T21:08:13.552Z,99049.72
2023-03-31T21:13:16.383Z,99049.00
2023-03-31T21:18:17.727Z,99052.66
2023-03-31T21:23:19.559Z,99045.91
2023-03-31T21:28:22.736Z,99045.44
2023-03-31T21:33:25.091Z,99041.94
2023-03-31T21:38:27.808Z,99022.53
2023-03-31T21:43:29.161Z,99027.44
2023-03-31T21:48:30.529Z,99020.72
2023-03-31T21:53:31.893Z,99024.94
2023-03-31T21:58:33.406Z,99024.78
2023-03-31T22:03:35.184Z,99034.25
2023-03-31T22:08:37.231Z,99026.34
2023-03-31T22:13:38.780Z,99025.09
2023-03-31T22:18:40.143Z,99038.41
2023-03-31T22:23:41.641Z,99031.34
2023-03-31T22:28:42.966Z,99026.78
2023-03-31T22:33:44.286Z,99051.31
2023-03-31T22:38:45.751Z,99034.03
2023-03-31T22:43:47.105Z,99044.41
2023-03-31T22:48:49.483Z,99038.22
2023-03-31T22:53:51.612Z,99033.78
2023-03-31T22:58:55.562Z,99045.44
2023-03-31T23:03:57.011Z,99046.78
2023-03-31T23:08:58.632Z,99044.06
2023-03-31T23:13:59.973Z,99048.34
2023-03-31T23:19:01.333Z,99052.00
2023-03-31T23:24:03.337Z,99054.84
2023-03-31T23:29:04.838Z,99050.28
2023-03-31T23:34:07.102Z,99050.97
2023-03-31T23:39:08.530Z,99043.13
2023-03-31T23:44:09.869Z,99033.25
2023-03-31T23:49:11.864Z,99040.97
2023-03-31T23:54:13.238Z,99039.41
2023-03-31T23:59:15.457Z,99037.25
